Time;durP1;ratioP1;P1;durP2;ratioP2;P2;SDS_P1;SDS_P2;PMS_P1;PMS_P2;Temp;Humidity;BMP_temperature;BMP_pressure;BME280_temperature;BME280_humidity;BME280_pressure;Samples;Min_cycle;Max_cycle;Signal;HPM_P1;HPM_P2
2023/01/05 00:01:51;;;;;;;10.83;4.93;;;;;;;-0.46;100.00;99511.60;1722565;83;21114;-69
2023/01/05 00:04:19;;;;;;;12.80;5.93;;;;;;;-0.44;100.00;99514.14;1723985;83;21062;-69
2023/01/05 00:06:46;;;;;;;13.53;6.87;;;;;;;-0.45;100.00;99509.29;1724142;83;21011;-71
2023/01/05 00:09:15;;;;;;;18.60;7.07;;;;;;;-0.45;100.00;99506.63;1724165;83;21006;-70
2023/01/05 00:23:04;;;;;;;17.50;8.67;;;;;;;-0.55;100.00;99489.68;1723981;83;21057;-70
2023/01/05 00:25:35;;;;;;;16.93;8.33;;;;;;;-0.53;100.00;99492.22;1723774;83;21552;-70
2023/01/05 00:28:02;;;;;;;18.63;8.10;;;;;;;-0.52;100.00;99487.30;1723985;83;21022;-69
2023/01/05 00:30:34;;;;;;;14.37;6.13;;;;;;;-0.50;100.00;99484.88;1723615;83;21049;-69
2023/01/05 00:33:01;;;;;;;11.97;5.53;;;;;;;-0.49;100.00;99469.81;1715980;83;21053;-69
2023/01/05 00:35:28;;;;;;;10.83;4.80;;;;;;;-0.48;100.00;99464.84;1723939;83;21108;-71
2023/01/05 00:37:55;;;;;;;12.10;5.60;;;;;;;-0.45;100.00;99468.13;1723705;83;21010;-70
2023/01/05 00:40:22;;;;;;;11.10;5.30;;;;;;;-0.42;100.00;99455.95;1723690;83;21073;-69
2023/01/05 00:42:52;;;;;;;9.73;4.80;;;;;;;-0.37;100.00;99442.78;1723880;83;21045;-69
2023/01/05 00:45:20;;;;;;;11.70;5.07;;;;;;;-0.33;100.00;99450.91;1723713;83;21010;-68
2023/01/05 00:47:48;;;;;;;8.67;4.57;;;;;;;-0.29;100.00;99454.53;1723771;83;21049;-70
2023/01/05 00:50:16;;;;;;;10.03;4.80;;;;;;;-0.27;100.00;99453.92;1723716;83;21527;-70
2023/01/05 00:52:46;;;;;;;8.23;4.97;;;;;;;-0.23;100.00;99441.25;1723613;83;21022;-71
2023/01/05 00:55:13;;;;;;;8.83;4.20;;;;;;;-0.21;100.00;99430.05;1723875;83;21049;-69
2023/01/05 00:57:40;;;;;;;11.17;4.90;;;;;;;-0.18;100.00;99418.33;1724113;83;21046;-69
2023/01/05 01:00:13;;;;;;;7.53;4.07;;;;;;;-0.18;100.00;99413.85;1723788;83;21034;-69
2023/01/05 01:02:40;;;;;;;8.27;4.50;;;;;;;-0.16;100.00;99411.08;1716962;82;21510;-70
2023/01/05 01:05:08;;;;;;;7.40;4.13;;;;;;;-0.14;100.00;99410.02;1709851;84;21065;-69
2023/01/05 01:07:36;;;;;;;6.27;3.83;;;;;;;-0.13;100.00;99402.88;1709499;84;21048;-69
2023/01/05 01:10:06;;;;;;;8.43;4.20;;;;;;;-0.12;100.00;99408.08;1709932;83;21044;-71
2023/01/05 01:12:34;;;;;;;6.77;3.83;;;;;;;-0.09;100.00;99404.33;1709789;84;21000;-70
2023/01/05 01:15:01;;;;;;;8.03;4.37;;;;;;;-0.06;100.00;99414.23;1709843;84;21064;-69
2023/01/05 01:17:30;;;;;;;9.47;4.87;;;;;;;-0.03;100.00;99404.70;1709408;84;21080;-70
2023/01/05 01:19:58;;;;;;;7.40;4.30;;;;;;;-0.02;100.00;99385.61;1709836;83;21005;-70
2023/01/05 01:22:25;;;;;;;8.23;4.40;;;;;;;0.02;100.00;99386.22;1709718;83;21016;-70
2023/01/05 01:24:52;;;;;;;7.47;4.33;;;;;;;0.06;100.00;99379.22;1709662;83;21032;-70
2023/01/05 01:27:19;;;;;;;6.50;4.17;;;;;;;0.08;100.00;99377.78;1683813;84;21566;-69
2023/01/05 01:29:46;;;;;;;7.90;4.40;;;;;;;0.09;100.00;99376.33;1709670;84;21017;-70
2023/01/05 01:32:13;;;;;;;12.93;5.03;;;;;;;0.08;100.00;99371.97;1709904;84;21048;-68
2023/01/05 01:34:39;;;;;;;10.90;5.40;;;;;;;0.09;100.00;99372.80;1709729;83;21101;-70
2023/01/05 01:37:07;;;;;;;11.23;5.07;;;;;;;0.07;100.00;99370.30;1709653;84;21040;-70
2023/01/05 01:39:35;;;;;;;10.97;4.83;;;;;;;0.05;100.00;99362.06;1709119;84;21061;-70
2023/01/05 01:42:05;;;;;;;12.70;5.80;;;;;;;0.07;100.00;99349.48;1709378;83;21072;-70
2023/01/05 01:44:59;;;;;;;11.03;5.40;;;;;;;0.07;100.00;99339.72;1709481;84;21068;-70
2023/01/05 01:47:47;;;;;;;20.53;10.60;;;;;;;0.07;100.00;99350.81;1709870;83;21052;-69
2023/01/05 01:50:28;;;;;;;22.73;12.57;;;;;;;0.07;100.00;99342.84;1706606;83;21037;-69
2023/01/05 01:53:02;;;;;;;21.10;11.17;;;;;;;0.05;100.00;99335.47;1709803;83;21005;-70
2023/01/05 01:55:30;;;;;;;17.90;8.73;;;;;;;0.06;100.00;99322.06;1709718;84;21013;-69
2023/01/05 01:57:57;;;;;;;16.23;7.90;;;;;;;0.05;100.00;99320.36;1692059;85;21038;-69
2023/01/05 02:00:25;;;;;;;14.10;6.53;;;;;;;0.04;100.00;99320.52;1692025;85;21030;-70
2023/01/05 02:02:54;;;;;;;11.03;5.37;;;;;;;0.01;100.00;99306.96;1691755;83;21089;-70
2023/01/05 02:05:30;;;;;;;7.63;4.37;;;;;;;-0.01;100.00;99315.55;1667784;85;21074;-72
2023/01/05 02:07:58;;;;;;;8.57;4.17;;;;;;;-0.04;100.00;99319.27;1691985;85;21007;-70
2023/01/05 02:10:50;;;;;;;11.00;4.10;;;;;;;-0.06;100.00;99321.70;1691903;85;21050;-71
2023/01/05 02:13:53;;;;;;;8.47;4.50;;;;;;;-0.09;100.00;99325.47;1691720;85;21521;-70
2023/01/05 02:17:05;;;;;;;8.60;4.43;;;;;;;-0.08;100.00;99319.66;1691923;85;21050;-70
2023/01/05 02:19:54;;;;;;;;;;;;;;;-0.11;100.00;99320.73;1694377;85;21625;-70
2023/01/05 02:23:06;;;;;;;8.77;4.20;;;;;;;-0.15;100.00;99308.66;1691861;85;20140;-71
2023/01/05 02:25:57;;;;;;;8.50;4.33;;;;;;;-0.21;100.00;99302.02;1692056;85;21111;-69
2023/01/05 02:28:38;;;;;;;5.67;3.80;;;;;;;-0.28;100.00;99294.17;1691823;85;21066;-68
2023/01/05 02:31:18;;;;;;;6.70;4.23;;;;;;;-0.36;100.00;99297.89;1692141;85;21017;-69
2023/01/05 02:34:16;;;;;;;7.70;4.17;;;;;;;-0.40;100.00;99286.66;1691926;85;21003;-69
2023/01/05 02:36:54;;;;;;;6.00;3.93;;;;;;;-0.43;100.00;99292.70;1691691;85;21126;-67
2023/01/05 02:39:52;;;;;;;7.93;4.07;;;;;;;-0.45;100.00;99287.99;1692130;85;21042;-70
2023/01/05 02:42:23;;;;;;;6.53;3.87;;;;;;;-0.48;100.00;99282.91;1691905;85;20994;-70
2023/01/05 02:44:51;;;;;;;6.70;3.90;;;;;;;-0.50;100.00;99261.78;1691902;85;21090;-69
2023/01/05 02:47:29;;;;;;;7.47;3.93;;;;;;;-0.52;100.00;99242.47;1691704;85;21500;-69
2023/01/05 02:50:09;;;;;;;8.10;4.03;;;;;;;-0.54;100.00;99247.55;1691442;85;21035;-69
2023/01/05 02:52:48;;;;;;;8.37;4.23;;;;;;;-0.55;100.00;99241.86;1691702;85;21027;-69
2023/01/05 02:55:19;;;;;;;6.50;3.83;;;;;;;-0.59;100.00;99229.31;1689508;85;21085;-70
2023/01/05 02:57:58;;;;;;;8.17;4.03;;;;;;;-0.61;100.00;99230.75;1691950;85;20990;-69
2023/01/05 03:00:45;;;;;;;6.77;3.70;;;;;;;-0.63;100.00;99223.39;1686470;85;21037;-69
2023/01/05 03:03:18;;;;;;;5.90;4.03;;;;;;;-0.65;100.00;99206.73;1703216;82;21634;-71
2023/01/05 03:05:58;;;;;;;9.78;3.67;;;;;;;-0.65;100.00;99209.89;1722778;82;21452;-70
2023/01/05 03:08:27;;;;;;;7.77;3.60;;;;;;;-0.65;100.00;99197.45;1723706;83;21078;-70
2023/01/05 03:14:19;;;;;;;9.90;4.13;;;;;;;-0.66;100.00;99183.80;1723450;83;21039;-69
2023/01/05 03:16:46;;;;;;;7.03;3.90;;;;;;;-0.65;100.00;99177.53;1723436;83;21608;-70
2023/01/05 03:37:10;;;;;;;5.90;3.03;;;;;;;-0.59;100.00;99141.68;1723874;83;21093;-71
2023/01/05 03:39:40;;;;;;;5.00;3.20;;;;;;;-0.60;100.00;99138.19;1723908;83;20975;-70
2023/01/05 03:42:08;;;;;;;5.00;3.50;;;;;;;-0.61;100.00;99140.96;1723514;83;21046;-70
2023/01/05 03:44:37;;;;;;;6.43;3.83;;;;;;;-0.62;100.00;99134.81;1723961;83;20994;-71
2023/01/05 03:47:05;;;;;;;6.13;3.50;;;;;;;-0.62;100.00;99122.00;1682827;83;21487;-70
2023/01/05 03:49:33;;;;;;;6.13;3.70;;;;;;;-0.63;100.00;99123.82;1695899;83;21556;-68
2023/01/05 03:52:01;;;;;;;6.80;3.90;;;;;;;-0.61;100.00;99123.21;1723639;83;21078;-70
2023/01/05 03:54:28;;;;;;;7.43;3.87;;;;;;;-0.60;100.00;99119.60;1723946;83;21014;-70
2023/01/05 03:56:56;;;;;;;7.50;3.87;;;;;;;-0.60;100.00;99110.80;1723890;83;21006;-69
2023/01/05 03:59:23;;;;;;;8.80;3.97;;;;;;;-0.58;100.00;99118.16;1723669;83;21058;-69
2023/01/05 04:01:50;;;;;;;5.27;3.27;;;;;;;-0.58;100.00;99106.20;1723747;83;21009;-69
2023/01/05 04:04:17;;;;;;;5.53;3.30;;;;;;;-0.57;100.00;99107.88;1724523;83;21102;-71
2023/01/05 04:06:45;;;;;;;6.03;3.43;;;;;;;-0.55;100.00;99102.45;1729330;83;21436;-70
2023/01/05 04:09:13;;;;;;;7.20;3.50;;;;;;;-0.53;100.00;99101.84;1729217;83;21061;-70
2023/01/05 04:11:42;;;;;;;4.73;3.17;;;;;;;-0.53;100.00;99099.17;1729005;83;21359;-68
2023/01/05 04:14:09;;;;;;;6.63;4.07;;;;;;;-0.52;100.00;99094.23;1729152;83;21100;-70
2023/01/05 04:16:36;;;;;;;4.77;3.03;;;;;;;-0.49;100.00;99090.02;1729001;83;21057;-70
2023/01/05 04:19:06;;;;;;;6.53;3.50;;;;;;;-0.49;100.00;99092.18;1727680;83;21049;-70
2023/01/05 04:21:33;;;;;;;5.17;3.27;;;;;;;-0.48;100.00;99085.91;1729063;83;21049;-71
2023/01/05 04:24:00;;;;;;;7.30;3.70;;;;;;;-0.46;100.00;99087.95;1729044;83;20990;-70
2023/01/05 04:26:28;;;;;;;4.53;3.10;;;;;;;-0.44;100.00;99082.53;1729301;83;21098;-69
2023/01/05 04:28:55;;;;;;;7.23;3.60;;;;;;;-0.43;100.00;99089.02;1690270;83;21085;-69
2023/01/05 04:31:26;;;;;;;4.27;3.30;;;;;;;-0.40;100.00;99086.12;1729320;83;20998;-69
2023/01/05 04:33:54;;;;;;;6.90;3.20;;;;;;;-0.36;100.00;99081.40;1729223;83;21097;-69
2023/01/05 04:36:22;;;;;;;7.97;3.47;;;;;;;-0.32;100.00;99083.31;1729168;83;21029;-70
2023/01/05 04:38:50;;;;;;;6.13;3.47;;;;;;;-0.33;100.00;99084.30;1729247;83;21076;-69
2023/01/05 04:41:17;;;;;;;6.70;4.00;;;;;;;-0.32;100.00;99084.19;1689834;83;21033;-69
2023/01/05 04:43:46;;;;;;;8.73;4.20;;;;;;;-0.28;100.00;99068.84;1729431;83;21006;-69
2023/01/05 04:46:15;;;;;;;7.97;4.23;;;;;;;-0.27;100.00;99058.05;1729190;83;21085;-69
2023/01/05 04:48:44;;;;;;;10.50;4.33;;;;;;;-0.26;100.00;99054.94;1728945;83;21081;-70
2023/01/05 04:51:11;;;;;;;6.53;3.90;;;;;;;-0.23;100.00;99045.36;1729314;83;21033;-70
2023/01/05 04:53:38;;;;;;;6.93;3.87;;;;;;;-0.21;100.00;99049.59;1729059;83;21038;-71
2023/01/05 04:56:06;;;;;;;5.90;3.40;;;;;;;-0.19;100.00;99044.16;1729368;83;21511;-70
2023/01/05 04:58:36;;;;;;;6.23;3.23;;;;;;;-0.17;100.00;99047.53;1728005;83;21567;-70
2023/01/05 05:01:04;;;;;;;4.20;2.90;;;;;;;-0.16;100.00;99039.93;1728760;83;21061;-70
2023/01/05 05:03:33;;;;;;;5.47;2.90;;;;;;;-0.15;100.00;99042.92;1729181;82;21609;-71
2023/01/05 05:06:01;;;;;;;3.07;2.70;;;;;;;-0.12;100.00;99034.70;1724820;82;21480;-71
2023/01/05 05:08:28;;;;;;;3.17;2.80;;;;;;;-0.09;100.00;99029.61;1723944;83;21074;-70
2023/01/05 05:10:56;;;;;;;3.37;2.90;;;;;;;-0.08;100.00;99032.64;1723672;83;21030;-70
2023/01/05 05:13:23;;;;;;;3.50;2.60;;;;;;;-0.05;100.00;99033.23;1723613;83;21054;-71
2023/01/05 05:15:52;;;;;;;4.60;3.20;;;;;;;-0.04;100.00;99020.77;1723419;83;21042;-70
2023/01/05 05:18:21;;;;;;;3.63;2.90;;;;;;;0.01;100.00;99017.73;1723705;83;21026;-70
2023/01/05 05:20:50;;;;;;;3.10;2.70;;;;;;;0.02;100.00;99006.98;1723505;83;21057;-71
2023/01/05 05:23:18;;;;;;;6.47;3.20;;;;;;;0.02;100.00;98997.68;1723815;83;21069;-71
2023/01/05 05:25:47;;;;;;;6.13;3.00;;;;;;;0.03;100.00;98992.70;1723547;83;21050;-71
2023/01/05 05:28:13;;;;;;;4.40;3.10;;;;;;;0.05;100.00;99000.55;1723279;83;21065;-71
2023/01/05 05:30:40;;;;;;;3.50;2.70;;;;;;;0.06;100.00;98991.62;1723659;83;20995;-70
2023/01/05 05:33:07;;;;;;;5.47;2.90;;;;;;;0.06;100.00;98993.78;1723369;83;21536;-71
2023/01/05 05:35:34;;;;;;;4.63;2.97;;;;;;;0.07;100.00;98988.83;1723413;83;21033;-70
2023/01/05 05:38:01;;;;;;;4.27;3.00;;;;;;;0.06;100.00;98984.48;1723504;83;21082;-69
2023/01/05 05:40:28;;;;;;;4.90;3.23;;;;;;;0.07;100.00;98994.61;1723381;83;21069;-69
2023/01/05 05:42:55;;;;;;;6.37;3.73;;;;;;;0.07;100.00;98989.30;1723358;83;21014;-70
2023/01/05 05:45:21;;;;;;;5.87;3.27;;;;;;;0.10;100.00;99002.34;1723590;83;21042;-70
2023/01/05 05:47:48;;;;;;;5.53;3.23;;;;;;;0.09;100.00;98990.01;1723491;83;21018;-71
2023/01/05 05:50:15;;;;;;;4.80;3.30;;;;;;;0.10;100.00;98997.86;1723205;83;21038;-70
2023/01/05 05:52:44;;;;;;;4.10;2.83;;;;;;;0.13;100.00;98988.80;1722924;83;21050;-70
2023/01/05 05:55:11;;;;;;;4.43;3.07;;;;;;;0.14;100.00;98983.81;1723500;83;21006;-70
2023/01/05 05:57:38;;;;;;;4.57;2.80;;;;;;;0.15;100.00;98985.52;1723469;83;21014;-68
2023/01/05 06:00:07;;;;;;;6.47;3.03;;;;;;;0.15;100.00;98978.38;1723359;83;21046;-70
2023/01/05 06:02:40;;;;;;;5.30;3.00;;;;;;;0.18;100.00;98979.95;1723431;83;20982;-70
2023/01/05 06:05:08;;;;;;;5.27;2.83;;;;;;;0.21;100.00;98984.14;1724553;83;21034;-70
2023/01/05 06:07:37;;;;;;;4.63;2.83;;;;;;;0.23;100.00;98980.86;1728537;83;21042;-70
2023/01/05 06:10:06;;;;;;;5.40;3.10;;;;;;;0.25;100.00;98981.11;1723665;83;21018;-69
2023/01/05 06:12:34;;;;;;;6.67;3.10;;;;;;;0.25;100.00;98984.23;1718581;83;21069;-69
2023/01/05 06:15:01;;;;;;;4.47;2.67;;;;;;;0.26;100.00;98965.48;1722604;83;21467;-69
2023/01/05 06:17:28;;;;;;;5.77;3.30;;;;;;;0.28;100.00;98962.20;1720515;83;21100;-69
2023/01/05 06:19:56;;;;;;;10.30;4.20;;;;;;;0.31;100.00;98959.29;1723817;83;21049;-70
2023/01/05 06:22:23;;;;;;;9.27;4.30;;;;;;;0.32;100.00;98951.69;1723680;83;21033;-70
2023/01/05 06:24:50;;;;;;;11.03;4.27;;;;;;;0.33;100.00;98944.53;1721391;83;21022;-69
2023/01/05 06:27:18;;;;;;;8.90;4.30;;;;;;;0.36;100.00;98946.94;1694512;84;20988;-69
2023/01/05 06:29:44;;;;;;;6.17;3.80;;;;;;;0.37;100.00;98941.95;1678884;85;21469;-72
2023/01/05 06:32:11;;;;;;;9.43;4.20;;;;;;;0.37;100.00;98947.28;1686923;84;21055;-71
2023/01/05 06:34:38;;;;;;;10.63;4.53;;;;;;;0.37;100.00;98940.63;1701240;84;20992;-70
2023/01/05 06:37:05;;;;;;;9.50;4.03;;;;;;;0.37;100.00;98929.98;1682877;85;21049;-70
2023/01/05 06:39:32;;;;;;;11.90;4.43;;;;;;;0.38;100.00;98922.38;1675602;85;21029;-69
2023/01/05 06:42:00;;;;;;;11.57;4.83;;;;;;;0.38;100.00;98923.21;1682874;85;20982;-70
2023/01/05 06:44:27;;;;;;;11.17;4.50;;;;;;;0.40;100.00;98912.94;1685795;85;21423;-69
2023/01/05 06:46:54;;;;;;;8.23;3.77;;;;;;;0.41;100.00;98895.53;1679157;85;21070;-71
2023/01/05 06:49:21;;;;;;;13.80;4.57;;;;;;;0.44;100.00;98899.72;1664700;86;21559;-68
2023/01/05 06:51:48;;;;;;;8.47;3.80;;;;;;;0.45;100.00;98887.63;1654886;86;21087;-67
2023/01/05 06:54:14;;;;;;;9.33;4.00;;;;;;;0.45;100.00;98877.48;1682021;85;21022;-67
2023/01/05 06:56:41;;;;;;;8.60;3.90;;;;;;;0.47;100.00;98869.70;1689358;84;21039;-67
2023/01/05 06:59:08;;;;;;;7.83;4.30;;;;;;;0.50;100.00;98874.76;1676055;85;21036;-67
2023/01/05 07:01:35;;;;;;;9.20;4.30;;;;;;;0.54;100.00;98866.02;1657307;86;21085;-69
2023/01/05 07:04:02;;;;;;;7.43;3.77;;;;;;;0.60;100.00;98873.94;1677091;85;21077;-66
2023/01/05 07:06:29;;;;;;;7.80;3.90;;;;;;;0.64;100.00;98853.59;1702342;83;21599;-66
2023/01/05 07:08:56;;;;;;;6.33;4.00;;;;;;;0.70;100.00;98854.86;1705349;84;20989;-68
2023/01/05 07:11:23;;;;;;;8.17;3.87;;;;;;;0.75;100.00;98851.30;1722268;83;21061;-69
2023/01/05 07:13:50;;;;;;;5.60;3.73;;;;;;;0.79;100.00;98850.03;1720795;82;21049;-69
2023/01/05 07:16:17;;;;;;;7.33;3.80;;;;;;;0.83;100.00;98835.46;1724666;82;21001;-70
2023/01/05 07:18:45;;;;;;;6.63;3.80;;;;;;;0.89;100.00;98821.61;1732906;82;21497;-75
2023/01/05 07:21:13;;;;;;;7.07;3.67;;;;;;;0.94;100.00;98822.05;1729096;83;21665;-75
2023/01/05 07:23:41;;;;;;;8.10;3.93;;;;;;;0.97;100.00;98811.59;1716319;84;21003;-70
2023/01/05 07:26:08;;;;;;;7.43;3.93;;;;;;;0.99;100.00;98806.97;1720769;82;21290;-71
2023/01/05 07:28:35;;;;;;;7.77;4.00;;;;;;;1.00;100.00;98802.50;1722722;82;21249;-71
2023/01/05 07:31:03;;;;;;;7.30;3.87;;;;;;;1.01;100.00;98802.83;1718711;82;21083;-68
2023/01/05 07:33:30;;;;;;;7.80;4.10;;;;;;;1.04;100.00;98802.56;1723890;82;21022;-69
2023/01/05 07:36:02;;;;;;;11.83;4.63;;;;;;;1.07;100.00;98785.81;1699112;84;21061;-71
2023/01/05 07:38:31;;;;;;;9.03;4.50;;;;;;;1.08;100.00;98776.86;1719397;83;21018;-69
2023/01/05 07:40:59;;;;;;;6.37;3.87;;;;;;;1.11;100.00;98772.56;1721675;83;21045;-69
2023/01/05 07:43:27;;;;;;;8.33;4.20;;;;;;;1.09;100.00;98761.22;1724588;83;21053;-75
2023/01/05 07:45:59;;;;;;;6.93;4.10;;;;;;;1.12;100.00;98743.64;1718854;83;21009;-70
2023/01/05 07:48:27;;;;;;;7.53;4.27;;;;;;;1.17;100.00;98752.54;1725359;83;21101;-68
2023/01/05 07:51:00;;;;;;;7.13;3.93;;;;;;;1.20;100.00;98740.75;1716385;84;21037;-71
2023/01/05 07:53:29;;;;;;;8.93;4.28;;;;;;;1.22;100.00;98740.11;1725050;83;21009;-69
2023/01/05 07:55:58;;;;;;;8.33;4.07;;;;;;;1.23;100.00;98736.48;1716241;84;21517;-72
2023/01/05 07:58:26;;;;;;;7.77;3.93;;;;;;;1.25;100.00;98728.68;1729146;83;21022;-74
2023/01/05 08:00:53;;;;;;;8.57;4.40;;;;;;;1.29;100.00;98725.23;1729243;83;21095;-73
2023/01/05 08:03:21;;;;;;;9.40;4.53;;;;;;;1.32;100.00;98699.16;1727050;83;21093;-70
2023/01/05 08:05:48;;;;;;;9.33;3.90;;;;;;;1.35;100.00;98704.70;1728772;83;21046;-70
2023/01/05 08:08:15;;;;;;;6.93;4.30;;;;;;;1.38;100.00;98700.42;1739159;82;21024;-68
2023/01/05 08:10:42;;;;;;;7.27;4.00;;;;;;;1.40;100.00;98698.92;1718719;83;21095;-69
2023/01/05 08:15:57;;;;;;;8.90;4.57;;;;;;;1.42;100.00;98677.00;1718723;83;21063;-70
2023/01/05 08:18:23;;;;;;;8.90;4.20;;;;;;;1.42;100.00;98696.97;1718909;83;21012;-69
2023/01/05 08:20:53;;;;;;;10.67;4.80;;;;;;;1.42;100.00;98657.84;1718808;83;20992;-70
2023/01/05 08:23:21;;;;;;;10.03;4.27;;;;;;;1.44;100.00;98659.87;1717442;83;21063;-70
2023/01/05 08:25:48;;;;;;;9.83;4.63;;;;;;;1.50;100.00;98658.44;1717337;83;21117;-69
2023/01/05 08:28:15;;;;;;;7.23;4.03;;;;;;;1.53;100.00;98642.16;1717407;83;21527;-70
2023/01/05 08:30:43;;;;;;;8.70;4.23;;;;;;;1.55;100.00;98626.03;1716828;83;21087;-71
2023/01/05 08:33:09;;;;;;;10.47;4.13;;;;;;;1.55;100.00;98635.36;1717479;83;21541;-70
2023/01/05 08:35:43;;;;;;;9.50;4.87;;;;;;;1.55;100.00;98617.54;1717089;83;21605;-71
2023/01/05 08:38:10;;;;;;;9.37;4.30;;;;;;;1.58;100.00;98603.10;1718328;83;21063;-72
2023/01/05 08:40:37;;;;;;;8.50;4.37;;;;;;;1.62;100.00;98600.47;1713196;83;21041;-72
2023/01/05 08:43:05;;;;;;;10.63;4.50;;;;;;;1.64;100.00;98593.16;1707180;84;21142;-70
2023/01/05 08:45:32;;;;;;;7.53;4.30;;;;;;;1.67;100.00;98582.22;1707175;84;21060;-70
2023/01/05 08:48:01;;;;;;;6.43;3.93;;;;;;;1.71;100.00;98582.25;1708553;83;20989;-67
2023/01/05 08:50:30;;;;;;;9.20;4.33;;;;;;;1.72;100.00;98563.95;1718479;83;21136;-67
2023/01/05 08:52:57;;;;;;;10.03;4.43;;;;;;;1.75;100.00;98557.47;1718486;82;21052;-68
2023/01/05 08:55:24;;;;;;;8.43;3.93;;;;;;;1.77;100.00;98547.02;1718473;82;21014;-67
2023/01/05 08:57:51;;;;;;;8.77;4.13;;;;;;;1.79;100.00;98545.51;1718498;83;21051;-67
2023/01/05 09:00:20;;;;;;;6.83;4.27;;;;;;;1.82;100.00;98535.88;1718852;83;21041;-67
2023/01/05 09:02:48;;;;;;;7.87;4.03;;;;;;;1.88;100.00;98529.45;1718530;82;21012;-67
2023/01/05 09:05:15;;;;;;;8.13;4.10;;;;;;;1.93;100.00;98519.68;1718333;82;21080;-68
2023/01/05 09:07:41;;;;;;;8.70;4.30;;;;;;;1.99;100.00;98503.56;1715176;83;21041;-67
2023/01/05 09:10:09;;;;;;;10.13;4.63;;;;;;;2.04;100.00;98499.44;1705814;84;21511;-66
2023/01/05 09:12:37;;;;;;;11.97;4.53;;;;;;;2.10;100.00;98496.64;1706124;84;21065;-68
2023/01/05 09:15:05;;;;;;;9.27;4.70;;;;;;;2.13;100.00;98494.17;1704761;84;21037;-67
2023/01/05 09:17:34;;;;;;;8.73;4.07;;;;;;;2.16;100.00;98469.84;1704148;83;21020;-68
2023/01/05 09:20:04;;;;;;;8.70;4.30;;;;;;;2.16;100.00;98473.38;1705938;83;21077;-67
2023/01/05 09:22:34;;;;;;;7.97;4.40;;;;;;;2.19;100.00;98459.70;1687699;84;21085;-68
2023/01/05 09:25:02;;;;;;;13.10;4.70;;;;;;;2.18;100.00;98446.05;1676496;86;21051;-70
2023/01/05 09:27:29;;;;;;;11.43;4.93;;;;;;;2.19;100.00;98431.70;1689869;85;21034;-69
2023/01/05 09:29:56;;;;;;;9.20;4.63;;;;;;;2.20;100.00;98425.89;1691195;85;21006;-69
2023/01/05 09:32:23;;;;;;;7.67;4.20;;;;;;;2.20;100.00;98419.22;1695787;84;21081;-71
2023/01/05 09:34:50;;;;;;;7.80;4.03;;;;;;;2.21;100.00;98422.21;1691814;84;21167;-67
2023/01/05 09:37:17;;;;;;;9.30;4.47;;;;;;;2.19;100.00;98411.70;1693494;84;21028;-69
2023/01/05 09:39:45;;;;;;;12.20;4.47;;;;;;;2.21;100.00;98410.21;1690273;84;20993;-67
2023/01/05 09:42:16;;;;;;;9.53;4.03;;;;;;;2.20;100.00;98401.38;1658978;84;21091;-67
2023/01/05 09:44:51;;;;;;;8.10;4.10;;;;;;;2.21;100.00;98395.06;1687504;84;21547;-68
2023/01/05 09:47:39;;;;;;;9.33;4.60;;;;;;;2.20;100.00;98389.89;1692087;84;21007;-68
2023/01/05 09:50:14;;;;;;;5.47;3.87;;;;;;;2.18;100.00;98375.38;1674742;84;21029;-67
2023/01/05 09:52:42;;;;;;;7.17;4.22;;;;;;;2.14;100.00;98366.50;1686112;84;20994;-68
2023/01/05 09:55:20;;;;;;;5.33;3.90;;;;;;;2.11;100.00;98354.34;1694577;84;21100;-67
2023/01/05 09:58:06;;;;;;;10.50;4.97;;;;;;;2.11;100.00;98341.48;1698506;84;21002;-66
2023/01/05 10:00:33;;;;;;;7.23;4.13;;;;;;;2.10;100.00;98336.66;1698527;84;21058;-68
2023/01/05 10:03:11;;;;;;;11.97;4.60;;;;;;;2.12;100.00;98307.17;1698205;84;21045;-66
2023/01/05 10:05:41;;;;;;;7.57;4.57;;;;;;;2.15;100.00;98289.52;1689462;85;21620;-76
2023/01/05 10:08:34;;;;;;;12.80;5.10;;;;;;;2.15;100.00;98283.69;1690404;84;21057;-72
2023/01/05 10:14:43;;;;;;;12.83;5.50;;;;;;;2.18;100.00;98249.19;1662412;86;21092;-79
2023/01/05 10:17:16;;;;;;;10.17;4.90;;;;;;;2.21;100.00;98219.06;1659467;86;21515;-72
2023/01/05 10:19:45;;;;;;;12.87;5.70;;;;;;;2.24;100.00;98199.22;1703641;84;21069;-67
2023/01/05 10:22:36;;;;;;;11.53;5.37;;;;;;;2.23;100.00;98185.06;1679807;84;21543;-69
2023/01/05 10:25:29;;;;;;;11.90;5.43;;;;;;;2.23;100.00;98157.05;1687348;85;21093;-68
2023/01/05 10:28:07;;;;;;;10.75;5.22;;;;;;;2.24;100.00;98152.04;1657281;87;21065;-71
2023/01/05 10:30:55;;;;;;;10.97;5.17;;;;;;;2.26;100.00;98122.55;1667014;85;21109;-71
2023/01/05 10:33:52;;;;;;;21.97;7.23;;;;;;;2.28;100.00;98105.88;1686558;85;21066;-68
2023/01/05 10:36:31;;;;;;;15.60;6.20;;;;;;;2.30;100.00;98099.05;1689572;85;21076;-69
2023/01/05 10:39:37;;;;;;;13.03;5.30;;;;;;;2.30;100.00;98082.53;1657407;87;21501;-71
2023/01/05 10:42:09;;;;;;;15.50;7.33;;;;;;;2.32;100.00;98067.22;1690128;85;21060;-75
2023/01/05 10:45:03;;;;;;;9.53;5.63;;;;;;;2.35;100.00;98068.20;1686964;85;21102;-76
2023/01/05 10:47:36;;;;;;;12.83;6.00;;;;;;;2.39;100.00;98052.69;1684378;85;21066;-76
2023/01/05 10:50:05;;;;;;;11.30;6.00;;;;;;;2.42;100.00;98029.69;1686669;85;21087;-75
2023/01/05 10:52:33;;;;;;;15.13;6.80;;;;;;;2.43;100.00;98016.19;1686611;85;21078;-74
2023/01/05 10:55:01;;;;;;;13.83;6.17;;;;;;;2.47;100.00;97988.67;1687585;85;21098;-73
2023/01/05 10:57:37;;;;;;;13.77;6.00;;;;;;;2.50;100.00;97978.16;1686837;85;21027;-76
2023/01/05 11:00:20;;;;;;;11.53;5.83;;;;;;;2.52;100.00;97959.66;1686897;85;21051;-73
2023/01/05 11:03:00;;;;;;;14.47;6.13;;;;;;;2.56;100.00;97936.95;1688331;85;21073;-75
2023/01/05 11:05:37;;;;;;;15.03;6.67;;;;;;;2.61;100.00;97897.77;1687337;85;21120;-75
2023/01/05 11:08:13;;;;;;;16.03;7.53;;;;;;;2.66;100.00;97886.07;1661928;85;21081;-71
2023/01/05 11:11:02;;;;;;;14.23;6.60;;;;;;;2.69;100.00;97876.36;1687069;85;21076;-67
2023/01/05 11:13:36;;;;;;;13.53;6.50;;;;;;;2.74;100.00;97871.34;1658072;86;21200;-68
2023/01/05 11:16:19;;;;;;;18.83;7.10;;;;;;;2.78;100.00;97862.48;1699594;84;21054;-66
2023/01/05 11:18:58;;;;;;;15.03;7.17;;;;;;;2.80;100.00;97849.81;1715104;83;21011;-67
2023/01/05 11:21:38;;;;;;;13.47;6.60;;;;;;;2.83;100.00;97857.45;1719075;83;22242;-74
2023/01/05 11:24:10;;;;;;;17.97;6.90;;;;;;;2.86;100.00;97829.08;1741628;82;21021;-74
2023/01/05 11:41:13;;;;;;;15.70;6.90;;;;;;;3.26;100.00;97858.35;1835489;77;23361;-65
2023/01/05 11:43:40;;;;;;;15.03;7.10;;;;;;;3.28;100.00;97686.75;1795949;80;21048;-65
2023/01/05 11:46:08;;;;;;;12.17;6.77;;;;;;;3.30;100.00;97668.18;1798673;80;21017;-66
2023/01/05 11:48:34;;;;;;;17.40;7.23;;;;;;;3.31;100.00;97655.64;1798767;80;21475;-66
2023/01/05 11:51:01;;;;;;;15.63;7.10;;;;;;;3.32;100.00;97640.78;1798958;80;21009;-68
2023/01/05 11:53:37;;;;;;;17.20;8.07;;;;;;;3.35;100.00;97643.09;1797478;80;20961;-69
2023/01/05 11:56:22;;;;;;;17.03;7.70;;;;;;;3.37;100.00;97622.36;1792593;79;21519;-71
2023/01/05 11:58:56;;;;;;;15.30;7.47;;;;;;;3.39;100.00;97605.63;1782915;80;20998;-70
2023/01/05 12:02:12;;;;;;;14.87;7.43;;;;;;;3.44;100.00;97580.23;1764095;80;21049;-70
2023/01/05 12:05:17;;;;;;;15.87;7.13;;;;;;;3.47;100.00;97571.33;1729919;83;21017;-68
2023/01/05 12:07:52;;;;;;;17.10;7.53;;;;;;;3.50;100.00;97537.54;1737113;80;21115;-70
2023/01/05 12:10:36;;;;;;;18.23;7.60;;;;;;;3.53;100.00;97509.63;1768203;80;21074;-69
2023/01/05 12:13:26;;;;;;;13.63;6.60;;;;;;;3.54;100.00;97509.94;1783915;80;21460;-68
2023/01/05 12:16:13;;;;;;;19.63;8.93;;;;;;;3.55;100.00;97485.70;1777638;80;20964;-70
2023/01/05 12:19:08;;;;;;;16.37;7.47;;;;;;;3.57;100.00;97466.30;1722074;83;21512;-74
2023/01/05 12:21:59;;;;;;;15.70;7.90;;;;;;;3.58;100.00;97453.78;1730745;82;21069;-72
2023/01/05 12:24:55;;;;;;;13.80;7.20;;;;;;;3.59;100.00;97443.39;1730812;83;21029;-71
2023/01/05 12:28:03;;;;;;;14.67;7.43;;;;;;;3.59;100.00;97424.70;1758792;81;21000;-74
2023/01/05 12:30:58;;;;;;;15.83;7.77;;;;;;;3.59;100.00;97414.85;1745401;81;20981;-72
2023/01/05 12:34:10;;;;;;;16.57;7.63;;;;;;;3.59;100.00;97389.95;1731624;83;21027;-74
2023/01/05 12:37:09;;;;;;;19.77;8.53;;;;;;;3.58;100.00;97377.11;1731630;82;21001;-72
2023/01/05 12:40:07;;;;;;;16.97;7.70;;;;;;;3.58;100.00;97347.72;1723063;82;21120;-75
2023/01/05 12:43:08;;;;;;;16.60;7.77;;;;;;;3.59;100.00;97340.03;1765732;81;21508;-72
2023/01/05 12:46:22;;;;;;;14.77;7.13;;;;;;;3.59;100.00;97327.16;1739023;80;21348;-70